sensor_id;sensor_type;location;lat;lon;timestamp;P1;durP1;ratioP1;P2;durP2;ratioP2
61020;SDS011;66055;43.496;3.710;2023-01-19T00:00:16;7.18;;;3.25;;
61020;SDS011;66055;43.496;3.710;2023-01-19T00:02:42;5.85;;;3.47;;
61020;SDS011;66055;43.496;3.710;2023-01-19T00:05:09;6.47;;;3.58;;
61020;SDS011;66055;43.496;3.710;2023-01-19T00:07:35;7.00;;;3.50;;
61020;SDS011;66055;43.496;3.710;2023-01-19T00:10:01;6.20;;;3.20;;
61020;SDS011;66055;43.496;3.710;2023-01-19T00:12:27;7.25;;;2.90;;
61020;SDS011;66055;43.496;3.710;2023-01-19T00:14:53;5.97;;;3.30;;
61020;SDS011;66055;43.496;3.710;2023-01-19T00:17:18;9.10;;;3.50;;
61020;SDS011;66055;43.496;3.710;2023-01-19T00:19:44;7.15;;;3.30;;
61020;SDS011;66055;43.496;3.710;2023-01-19T00:22:10;9.98;;;4.05;;
61020;SDS011;66055;43.496;3.710;2023-01-19T00:24:35;7.82;;;4.55;;
61020;SDS011;66055;43.496;3.710;2023-01-19T00:27:01;10.40;;;5.60;;
61020;SDS011;66055;43.496;3.710;2023-01-19T00:29:28;8.88;;;5.05;;
61020;SDS011;66055;43.496;3.710;2023-01-19T00:32:01;8.25;;;4.70;;
61020;SDS011;66055;43.496;3.710;2023-01-19T00:34:28;7.90;;;4.05;;
61020;SDS011;66055;43.496;3.710;2023-01-19T00:37:01;5.82;;;3.30;;
61020;SDS011;66055;43.496;3.710;2023-01-19T00:39:27;9.60;;;3.45;;
61020;SDS011;66055;43.496;3.710;2023-01-19T00:41:53;7.25;;;3.22;;
61020;SDS011;66055;43.496;3.710;2023-01-19T00:44:37;4.70;;;3.20;;
61020;SDS011;66055;43.496;3.710;2023-01-19T00:47:03;6.03;;;3.42;;
61020;SDS011;66055;43.496;3.710;2023-01-19T00:51:55;6.03;;;3.30;;
61020;SDS011;66055;43.496;3.710;2023-01-19T00:54:21;7.93;;;4.25;;
61020;SDS011;66055;43.496;3.710;2023-01-19T00:56:47;12.07;;;6.82;;
61020;SDS011;66055;43.496;3.710;2023-01-19T00:59:12;20.45;;;12.75;;
61020;SDS011;66055;43.496;3.710;2023-01-19T01:01:38;11.77;;;5.97;;
61020;SDS011;66055;43.496;3.710;2023-01-19T01:04:04;8.25;;;4.13;;
61020;SDS011;66055;43.496;3.710;2023-01-19T01:06:29;12.77;;;5.53;;
61020;SDS011;66055;43.496;3.710;2023-01-19T01:08:55;7.25;;;4.47;;
61020;SDS011;66055;43.496;3.710;2023-01-19T01:11:21;10.23;;;4.55;;
61020;SDS011;66055;43.496;3.710;2023-01-19T01:13:46;9.25;;;4.57;;
61020;SDS011;66055;43.496;3.710;2023-01-19T01:16:15;7.47;;;3.90;;
61020;SDS011;66055;43.496;3.710;2023-01-19T01:18:41;8.13;;;4.10;;
61020;SDS011;66055;43.496;3.710;2023-01-19T01:21:08;6.25;;;4.13;;
61020;SDS011;66055;43.496;3.710;2023-01-19T01:23:37;7.45;;;4.25;;
61020;SDS011;66055;43.496;3.710;2023-01-19T01:28:29;6.00;;;3.78;;
61020;SDS011;66055;43.496;3.710;2023-01-19T01:30:56;8.73;;;4.38;;
61020;SDS011;66055;43.496;3.710;2023-01-19T01:33:22;11.55;;;5.30;;
61020;SDS011;66055;43.496;3.710;2023-01-19T01:38:14;6.25;;;4.00;;
61020;SDS011;66055;43.496;3.710;2023-01-19T01:40:40;9.50;;;5.10;;
61020;SDS011;66055;43.496;3.710;2023-01-19T01:45:39;7.57;;;3.72;;
61020;SDS011;66055;43.496;3.710;2023-01-19T01:48:16;7.60;;;4.22;;
61020;SDS011;66055;43.496;3.710;2023-01-19T01:50:53;5.40;;;3.63;;
61020;SDS011;66055;43.496;3.710;2023-01-19T01:53:44;6.30;;;3.95;;
61020;SDS011;66055;43.496;3.710;2023-01-19T01:56:14;6.65;;;3.97;;
61020;SDS011;66055;43.496;3.710;2023-01-19T01:58:45;9.75;;;4.05;;
61020;SDS011;66055;43.496;3.710;2023-01-19T02:01:12;6.78;;;4.05;;
61020;SDS011;66055;43.496;3.710;2023-01-19T02:03:56;5.85;;;3.70;;
61020;SDS011;66055;43.496;3.710;2023-01-19T02:06:22;6.63;;;4.05;;
61020;SDS011;66055;43.496;3.710;2023-01-19T02:08:58;5.60;;;3.75;;
61020;SDS011;66055;43.496;3.710;2023-01-19T02:11:47;4.88;;;3.47;;
61020;SDS011;66055;43.496;3.710;2023-01-19T02:14:33;5.05;;;3.15;;
61020;SDS011;66055;43.496;3.710;2023-01-19T02:17:01;4.95;;;3.60;;
61020;SDS011;66055;43.496;3.710;2023-01-19T02:24:36;6.82;;;3.65;;
61020;SDS011;66055;43.496;3.710;2023-01-19T02:27:02;5.88;;;3.45;;
61020;SDS011;66055;43.496;3.710;2023-01-19T02:29:29;5.70;;;3.60;;
61020;SDS011;66055;43.496;3.710;2023-01-19T02:31:56;6.93;;;3.53;;
61020;SDS011;66055;43.496;3.710;2023-01-19T02:34:23;6.15;;;3.72;;
61020;SDS011;66055;43.496;3.710;2023-01-19T02:37:00;5.50;;;3.88;;
61020;SDS011;66055;43.496;3.710;2023-01-19T02:39:40;6.38;;;3.80;;
61020;SDS011;66055;43.496;3.710;2023-01-19T02:42:24;8.23;;;3.95;;
61020;SDS011;66055;43.496;3.710;2023-01-19T02:44:55;5.50;;;3.72;;
61020;SDS011;66055;43.496;3.710;2023-01-19T02:47:21;8.10;;;4.60;;
61020;SDS011;66055;43.496;3.710;2023-01-19T02:49:55;7.90;;;4.20;;
61020;SDS011;66055;43.496;3.710;2023-01-19T02:52:22;6.30;;;3.53;;
61020;SDS011;66055;43.496;3.710;2023-01-19T02:54:59;9.88;;;3.88;;
61020;SDS011;66055;43.496;3.710;2023-01-19T02:57:58;5.38;;;3.20;;
61020;SDS011;66055;43.496;3.710;2023-01-19T03:00:51;5.45;;;3.47;;
61020;SDS011;66055;43.496;3.710;2023-01-19T03:03:33;6.03;;;3.88;;
61020;SDS011;66055;43.496;3.710;2023-01-19T03:06:48;6.90;;;3.90;;
61020;SDS011;66055;43.496;3.710;2023-01-19T03:11:42;6.57;;;3.97;;
61020;SDS011;66055;43.496;3.710;2023-01-19T03:14:15;8.25;;;4.35;;
61020;SDS011;66055;43.496;3.710;2023-01-19T03:16:50;8.52;;;4.82;;
61020;SDS011;66055;43.496;3.710;2023-01-19T03:19:24;10.68;;;5.47;;
61020;SDS011;66055;43.496;3.710;2023-01-19T03:21:59;8.38;;;4.18;;
61020;SDS011;66055;43.496;3.710;2023-01-19T03:24:39;9.90;;;4.43;;
61020;SDS011;66055;43.496;3.710;2023-01-19T03:27:11;6.63;;;3.95;;
61020;SDS011;66055;43.496;3.710;2023-01-19T03:29:47;6.85;;;3.90;;
61020;SDS011;66055;43.496;3.710;2023-01-19T03:32:17;8.25;;;4.13;;
61020;SDS011;66055;43.496;3.710;2023-01-19T03:34:45;8.90;;;4.30;;
61020;SDS011;66055;43.496;3.710;2023-01-19T03:37:14;7.15;;;3.83;;
61020;SDS011;66055;43.496;3.710;2023-01-19T03:39:42;6.30;;;4.00;;
61020;SDS011;66055;43.496;3.710;2023-01-19T03:42:08;7.03;;;4.10;;
61020;SDS011;66055;43.496;3.710;2023-01-19T03:44:40;7.32;;;4.22;;
61020;SDS011;66055;43.496;3.710;2023-01-19T03:47:09;9.40;;;4.30;;
61020;SDS011;66055;43.496;3.710;2023-01-19T03:49:36;10.82;;;4.43;;
61020;SDS011;66055;43.496;3.710;2023-01-19T03:52:03;8.05;;;3.78;;
61020;SDS011;66055;43.496;3.710;2023-01-19T03:54:29;9.00;;;4.10;;
61020;SDS011;66055;43.496;3.710;2023-01-19T03:56:55;7.38;;;4.03;;
61020;SDS011;66055;43.496;3.710;2023-01-19T03:59:21;7.85;;;4.10;;
61020;SDS011;66055;43.496;3.710;2023-01-19T04:01:47;5.85;;;3.28;;
61020;SDS011;66055;43.496;3.710;2023-01-19T04:04:13;6.15;;;3.42;;
61020;SDS011;66055;43.496;3.710;2023-01-19T04:06:39;6.22;;;4.00;;
61020;SDS011;66055;43.496;3.710;2023-01-19T04:09:05;6.60;;;3.88;;
61020;SDS011;66055;43.496;3.710;2023-01-19T04:13:58;7.10;;;3.70;;
61020;SDS011;66055;43.496;3.710;2023-01-19T04:16:23;5.43;;;3.50;;
61020;SDS011;66055;43.496;3.710;2023-01-19T04:18:49;5.25;;;3.00;;
61020;SDS011;66055;43.496;3.710;2023-01-19T04:21:16;15.32;;;4.72;;
61020;SDS011;66055;43.496;3.710;2023-01-19T04:23:42;6.38;;;3.45;;
61020;SDS011;66055;43.496;3.710;2023-01-19T04:26:11;5.57;;;3.40;;
61020;SDS011;66055;43.496;3.710;2023-01-19T04:28:37;7.53;;;3.45;;
61020;SDS011;66055;43.496;3.710;2023-01-19T04:31:03;6.00;;;3.50;;
61020;SDS011;66055;43.496;3.710;2023-01-19T04:33:30;6.75;;;3.08;;
61020;SDS011;66055;43.496;3.710;2023-01-19T04:38:22;5.78;;;2.97;;
61020;SDS011;66055;43.496;3.710;2023-01-19T04:40:48;5.53;;;2.85;;
61020;SDS011;66055;43.496;3.710;2023-01-19T04:43:15;7.03;;;3.20;;
61020;SDS011;66055;43.496;3.710;2023-01-19T04:45:40;5.25;;;2.97;;
61020;SDS011;66055;43.496;3.710;2023-01-19T04:48:08;5.53;;;3.20;;
61020;SDS011;66055;43.496;3.710;2023-01-19T04:50:35;5.85;;;2.95;;
61020;SDS011;66055;43.496;3.710;2023-01-19T04:53:01;6.05;;;3.28;;
61020;SDS011;66055;43.496;3.710;2023-01-19T04:55:27;5.78;;;3.33;;
61020;SDS011;66055;43.496;3.710;2023-01-19T04:57:53;5.32;;;2.83;;
61020;SDS011;66055;43.496;3.710;2023-01-19T05:00:19;5.40;;;3.00;;
61020;SDS011;66055;43.496;3.710;2023-01-19T05:02:45;5.93;;;3.50;;
61020;SDS011;66055;43.496;3.710;2023-01-19T05:05:11;8.98;;;4.22;;
61020;SDS011;66055;43.496;3.710;2023-01-19T05:07:37;4.80;;;3.20;;
61020;SDS011;66055;43.496;3.710;2023-01-19T05:10:03;6.57;;;3.65;;
61020;SDS011;66055;43.496;3.710;2023-01-19T05:12:30;5.57;;;2.88;;
61020;SDS011;66055;43.496;3.710;2023-01-19T05:14:56;5.40;;;2.60;;
61020;SDS011;66055;43.496;3.710;2023-01-19T05:17:22;5.82;;;2.78;;
61020;SDS011;66055;43.496;3.710;2023-01-19T05:19:47;4.88;;;2.47;;
61020;SDS011;66055;43.496;3.710;2023-01-19T05:22:13;5.18;;;2.55;;
61020;SDS011;66055;43.496;3.710;2023-01-19T05:27:05;4.60;;;2.28;;
61020;SDS011;66055;43.496;3.710;2023-01-19T05:29:31;6.30;;;2.20;;
61020;SDS011;66055;43.496;3.710;2023-01-19T05:31:57;3.15;;;2.30;;
61020;SDS011;66055;43.496;3.710;2023-01-19T05:34:23;3.47;;;2.50;;
61020;SDS011;66055;43.496;3.710;2023-01-19T05:36:49;6.15;;;2.90;;
61020;SDS011;66055;43.496;3.710;2023-01-19T05:39:15;7.50;;;3.67;;
61020;SDS011;66055;43.496;3.710;2023-01-19T05:41:41;7.28;;;2.67;;
61020;SDS011;66055;43.496;3.710;2023-01-19T05:44:09;7.35;;;2.70;;
61020;SDS011;66055;43.496;3.710;2023-01-19T05:46:35;9.38;;;3.80;;
61020;SDS011;66055;43.496;3.710;2023-01-19T05:49:01;6.35;;;2.95;;
61020;SDS011;66055;43.496;3.710;2023-01-19T05:51:29;5.15;;;2.10;;
61020;SDS011;66055;43.496;3.710;2023-01-19T05:53:59;8.05;;;1.83;;
61020;SDS011;66055;43.496;3.710;2023-01-19T05:58:51;5.60;;;2.38;;
61020;SDS011;66055;43.496;3.710;2023-01-19T06:01:17;2.85;;;2.00;;
61020;SDS011;66055;43.496;3.710;2023-01-19T06:03:42;4.78;;;1.92;;
61020;SDS011;66055;43.496;3.710;2023-01-19T06:06:08;4.43;;;2.22;;
61020;SDS011;66055;43.496;3.710;2023-01-19T06:08:34;6.65;;;2.40;;
61020;SDS011;66055;43.496;3.710;2023-01-19T06:10:59;3.28;;;2.10;;
61020;SDS011;66055;43.496;3.710;2023-01-19T06:13:25;6.57;;;2.75;;
61020;SDS011;66055;43.496;3.710;2023-01-19T06:16:00;3.40;;;1.80;;
61020;SDS011;66055;43.496;3.710;2023-01-19T06:18:27;7.07;;;2.53;;
61020;SDS011;66055;43.496;3.710;2023-01-19T06:20:53;6.05;;;2.38;;
61020;SDS011;66055;43.496;3.710;2023-01-19T06:23:26;8.23;;;1.98;;
61020;SDS011;66055;43.496;3.710;2023-01-19T06:25:54;9.07;;;2.70;;
61020;SDS011;66055;43.496;3.710;2023-01-19T06:28:20;14.43;;;2.90;;
61020;SDS011;66055;43.496;3.710;2023-01-19T06:30:47;7.93;;;2.70;;
61020;SDS011;66055;43.496;3.710;2023-01-19T06:33:14;8.10;;;2.75;;
61020;SDS011;66055;43.496;3.710;2023-01-19T06:35:44;6.82;;;3.50;;
61020;SDS011;66055;43.496;3.710;2023-01-19T06:38:10;5.78;;;1.90;;
61020;SDS011;66055;43.496;3.710;2023-01-19T06:40:38;3.58;;;2.50;;
61020;SDS011;66055;43.496;3.710;2023-01-19T06:43:04;9.57;;;2.70;;
61020;SDS011;66055;43.496;3.710;2023-01-19T06:45:30;7.30;;;1.83;;
61020;SDS011;66055;43.496;3.710;2023-01-19T06:47:56;15.52;;;3.45;;
61020;SDS011;66055;43.496;3.710;2023-01-19T06:50:22;14.85;;;2.90;;
61020;SDS011;66055;43.496;3.710;2023-01-19T06:52:50;4.97;;;2.72;;
61020;SDS011;66055;43.496;3.710;2023-01-19T06:55:16;5.35;;;2.50;;
61020;SDS011;66055;43.496;3.710;2023-01-19T06:57:42;5.03;;;2.58;;
61020;SDS011;66055;43.496;3.710;2023-01-19T07:00:09;3.05;;;1.98;;
61020;SDS011;66055;43.496;3.710;2023-01-19T07:02:36;12.07;;;2.00;;
61020;SDS011;66055;43.496;3.710;2023-01-19T07:05:09;4.47;;;1.90;;
61020;SDS011;66055;43.496;3.710;2023-01-19T07:07:35;7.80;;;2.97;;
61020;SDS011;66055;43.496;3.710;2023-01-19T07:10:04;6.60;;;2.78;;
61020;SDS011;66055;43.496;3.710;2023-01-19T07:12:32;6.28;;;2.33;;
61020;SDS011;66055;43.496;3.710;2023-01-19T07:14:58;24.08;;;4.22;;
61020;SDS011;66055;43.496;3.710;2023-01-19T07:17:24;8.57;;;3.78;;
61020;SDS011;66055;43.496;3.710;2023-01-19T07:19:50;7.95;;;3.33;;
61020;SDS011;66055;43.496;3.710;2023-01-19T07:24:41;4.53;;;2.80;;
61020;SDS011;66055;43.496;3.710;2023-01-19T07:27:07;4.82;;;2.70;;
61020;SDS011;66055;43.496;3.710;2023-01-19T07:29:35;7.15;;;3.92;;
61020;SDS011;66055;43.496;3.710;2023-01-19T07:32:01;7.82;;;3.83;;
61020;SDS011;66055;43.496;3.710;2023-01-19T07:34:27;6.25;;;2.92;;
61020;SDS011;66055;43.496;3.710;2023-01-19T07:36:54;4.82;;;2.75;;
61020;SDS011;66055;43.496;3.710;2023-01-19T07:39:19;4.03;;;2.20;;
61020;SDS011;66055;43.496;3.710;2023-01-19T07:41:46;6.85;;;2.20;;
61020;SDS011;66055;43.496;3.710;2023-01-19T07:44:13;5.07;;;2.28;;
61020;SDS011;66055;43.496;3.710;2023-01-19T07:46:38;4.80;;;2.38;;
61020;SDS011;66055;43.496;3.710;2023-01-19T07:51:30;3.40;;;1.90;;
61020;SDS011;66055;43.496;3.710;2023-01-19T07:53:56;6.03;;;2.40;;
61020;SDS011;66055;43.496;3.710;2023-01-19T07:56:22;2.15;;;1.60;;
61020;SDS011;66055;43.496;3.710;2023-01-19T07:58:48;2.88;;;2.10;;
61020;SDS011;66055;43.496;3.710;2023-01-19T08:01:16;5.40;;;2.47;;
61020;SDS011;66055;43.496;3.710;2023-01-19T08:03:42;3.45;;;2.08;;
61020;SDS011;66055;43.496;3.710;2023-01-19T08:08:44;3.47;;;2.05;;
61020;SDS011;66055;43.496;3.710;2023-01-19T08:11:10;16.02;;;2.78;;
61020;SDS011;66055;43.496;3.710;2023-01-19T08:13:36;4.68;;;1.80;;
61020;SDS011;66055;43.496;3.710;2023-01-19T08:16:01;5.90;;;2.28;;
61020;SDS011;66055;43.496;3.710;2023-01-19T08:18:27;3.15;;;1.90;;
61020;SDS011;66055;43.496;3.710;2023-01-19T08:20:53;2.90;;;1.75;;
61020;SDS011;66055;43.496;3.710;2023-01-19T08:23:18;5.47;;;1.75;;
61020;SDS011;66055;43.496;3.710;2023-01-19T08:25:44;3.85;;;2.00;;
61020;SDS011;66055;43.496;3.710;2023-01-19T08:28:11;3.10;;;1.80;;
61020;SDS011;66055;43.496;3.710;2023-01-19T08:30:39;5.07;;;2.00;;
61020;SDS011;66055;43.496;3.710;2023-01-19T08:33:07;3.45;;;1.83;;
61020;SDS011;66055;43.496;3.710;2023-01-19T08:35:34;5.65;;;3.35;;
61020;SDS011;66055;43.496;3.710;2023-01-19T08:38:08;2.03;;;1.48;;
61020;SDS011;66055;43.496;3.710;2023-01-19T08:40:35;3.50;;;1.67;;
61020;SDS011;66055;43.496;3.710;2023-01-19T08:43:06;6.50;;;1.98;;
61020;SDS011;66055;43.496;3.710;2023-01-19T08:45:34;3.33;;;1.95;;
61020;SDS011;66055;43.496;3.710;2023-01-19T08:48:12;2.80;;;1.63;;
61020;SDS011;66055;43.496;3.710;2023-01-19T08:50:38;1.75;;;1.30;;
61020;SDS011;66055;43.496;3.710;2023-01-19T08:53:04;3.95;;;1.38;;
61020;SDS011;66055;43.496;3.710;2023-01-19T08:55:34;4.05;;;2.17;;
61020;SDS011;66055;43.496;3.710;2023-01-19T08:58:00;1.58;;;1.30;;
61020;SDS011;66055;43.496;3.710;2023-01-19T09:00:30;2.60;;;1.38;;
61020;SDS011;66055;43.496;3.710;2023-01-19T09:02:58;1.85;;;1.33;;
61020;SDS011;66055;43.496;3.710;2023-01-19T09:05:27;3.22;;;1.50;;
61020;SDS011;66055;43.496;3.710;2023-01-19T09:07:53;2.20;;;1.58;;
61020;SDS011;66055;43.496;3.710;2023-01-19T09:10:19;2.45;;;1.27;;
61020;SDS011;66055;43.496;3.710;2023-01-19T09:12:44;2.33;;;1.25;;
61020;SDS011;66055;43.496;3.710;2023-01-19T09:15:10;4.68;;;1.45;;
61020;SDS011;66055;43.496;3.710;2023-01-19T09:17:38;1.85;;;1.40;;
61020;SDS011;66055;43.496;3.710;2023-01-19T09:20:05;3.00;;;1.50;;
61020;SDS011;66055;43.496;3.710;2023-01-19T09:22:31;7.13;;;2.42;;
61020;SDS011;66055;43.496;3.710;2023-01-19T09:24:57;3.65;;;2.53;;
61020;SDS011;66055;43.496;3.710;2023-01-19T09:27:23;5.20;;;2.05;;
61020;SDS011;66055;43.496;3.710;2023-01-19T09:29:49;5.13;;;2.95;;
61020;SDS011;66055;43.496;3.710;2023-01-19T09:32:18;14.98;;;7.15;;
61020;SDS011;66055;43.496;3.710;2023-01-19T09:34:44;3.78;;;2.50;;
61020;SDS011;66055;43.496;3.710;2023-01-19T09:37:10;5.95;;;3.08;;
61020;SDS011;66055;43.496;3.710;2023-01-19T09:39:36;5.80;;;3.28;;
61020;SDS011;66055;43.496;3.710;2023-01-19T09:44:53;9.30;;;4.95;;
61020;SDS011;66055;43.496;3.710;2023-01-19T09:47:21;5.93;;;3.08;;
61020;SDS011;66055;43.496;3.710;2023-01-19T09:49:55;14.23;;;4.25;;
61020;SDS011;66055;43.496;3.710;2023-01-19T09:52:25;8.48;;;4.43;;
61020;SDS011;66055;43.496;3.710;2023-01-19T09:54:52;4.55;;;2.97;;
61020;SDS011;66055;43.496;3.710;2023-01-19T09:57:23;7.32;;;3.67;;
61020;SDS011;66055;43.496;3.710;2023-01-19T09:59:51;3.83;;;2.47;;
61020;SDS011;66055;43.496;3.710;2023-01-19T10:05:00;5.25;;;2.20;;
61020;SDS011;66055;43.496;3.710;2023-01-19T10:10:15;3.50;;;2.00;;
61020;SDS011;66055;43.496;3.710;2023-01-19T10:20:58;7.80;;;4.13;;
61020;SDS011;66055;43.496;3.710;2023-01-19T10:23:51;5.43;;;2.58;;
61020;SDS011;66055;43.496;3.710;2023-01-19T10:26:44;4.28;;;2.58;;
61020;SDS011;66055;43.496;3.710;2023-01-19T10:32:09;5.93;;;2.13;;
61020;SDS011;66055;43.496;3.710;2023-01-19T10:34:37;14.93;;;7.68;;
61020;SDS011;66055;43.496;3.710;2023-01-19T10:37:04;9.90;;;5.32;;
61020;SDS011;66055;43.496;3.710;2023-01-19T10:39:56;16.60;;;5.75;;
61020;SDS011;66055;43.496;3.710;2023-01-19T10:45:02;5.68;;;2.13;;
61020;SDS011;66055;43.496;3.710;2023-01-19T10:47:38;11.93;;;4.13;;
61020;SDS011;66055;43.496;3.710;2023-01-19T10:50:17;11.00;;;4.40;;
61020;SDS011;66055;43.496;3.710;2023-01-19T10:52:50;5.85;;;2.67;;
61020;SDS011;66055;43.496;3.710;2023-01-19T10:55:28;17.80;;;7.97;;
61020;SDS011;66055;43.496;3.710;2023-01-19T10:58:04;9.82;;;4.97;;
61020;SDS011;66055;43.496;3.710;2023-01-19T11:00:49;16.70;;;3.92;;
61020;SDS011;66055;43.496;3.710;2023-01-19T11:03:28;3.63;;;1.98;;
61020;SDS011;66055;43.496;3.710;2023-01-19T11:08:40;11.60;;;5.22;;
61020;SDS011;66055;43.496;3.710;2023-01-19T11:11:09;3.40;;;1.70;;
61020;SDS011;66055;43.496;3.710;2023-01-19T11:13:39;5.47;;;2.28;;
61020;SDS011;66055;43.496;3.710;2023-01-19T11:18:53;5.22;;;1.88;;
61020;SDS011;66055;43.496;3.710;2023-01-19T11:21:21;5.55;;;2.25;;
61020;SDS011;66055;43.496;3.710;2023-01-19T11:23:49;6.45;;;2.63;;
61020;SDS011;66055;43.496;3.710;2023-01-19T11:26:27;5.75;;;2.55;;
61020;SDS011;66055;43.496;3.710;2023-01-19T11:28:56;1.92;;;1.40;;
61020;SDS011;66055;43.496;3.710;2023-01-19T11:34:03;3.72;;;1.80;;
61020;SDS011;66055;43.496;3.710;2023-01-19T11:36:33;4.18;;;1.40;;
61020;SDS011;66055;43.496;3.710;2023-01-19T11:39:14;7.40;;;3.28;;
61020;SDS011;66055;43.496;3.710;2023-01-19T11:41:58;5.35;;;2.33;;
61020;SDS011;66055;43.496;3.710;2023-01-19T11:44:33;2.95;;;1.52;;
61020;SDS011;66055;43.496;3.710;2023-01-19T11:47:10;3.60;;;1.73;;
61020;SDS011;66055;43.496;3.710;2023-01-19T11:49:56;7.50;;;2.67;;
61020;SDS011;66055;43.496;3.710;2023-01-19T11:55:22;3.42;;;1.60;;
61020;SDS011;66055;43.496;3.710;2023-01-19T11:58:13;4.38;;;2.10;;
61020;SDS011;66055;43.496;3.710;2023-01-19T12:01:01;4.50;;;2.17;;
61020;SDS011;66055;43.496;3.710;2023-01-19T12:03:32;3.47;;;1.85;;
61020;SDS011;66055;43.496;3.710;2023-01-19T12:06:06;6.30;;;2.20;;
61020;SDS011;66055;43.496;3.710;2023-01-19T12:08:42;3.25;;;1.80;;
61020;SDS011;66055;43.496;3.710;2023-01-19T12:11:16;3.88;;;1.85;;
61020;SDS011;66055;43.496;3.710;2023-01-19T12:13:46;5.10;;;2.40;;
61020;SDS011;66055;43.496;3.710;2023-01-19T12:16:23;6.05;;;3.00;;
61020;SDS011;66055;43.496;3.710;2023-01-19T12:21:17;3.58;;;2.03;;
61020;SDS011;66055;43.496;3.710;2023-01-19T12:26:29;6.43;;;3.20;;
61020;SDS011;66055;43.496;3.710;2023-01-19T12:28:58;13.27;;;3.85;;
61020;SDS011;66055;43.496;3.710;2023-01-19T12:31:30;7.22;;;2.88;;
61020;SDS011;66055;43.496;3.710;2023-01-19T12:34:15;9.15;;;3.55;;
61020;SDS011;66055;43.496;3.710;2023-01-19T12:36:56;4.60;;;2.13;;
61020;SDS011;66055;43.496;3.710;2023-01-19T12:39:27;6.28;;;2.78;;
61020;SDS011;66055;43.496;3.710;2023-01-19T12:44:37;8.93;;;3.75;;
61020;SDS011;66055;43.496;3.710;2023-01-19T12:54:37;3.55;;;1.90;;
61020;SDS011;66055;43.496;3.710;2023-01-19T12:57:17;6.45;;;1.60;;
61020;SDS011;66055;43.496;3.710;2023-01-19T12:59:46;5.57;;;2.13;;
61020;SDS011;66055;43.496;3.710;2023-01-19T13:18:44;11.63;;;2.35;;
61020;SDS011;66055;43.496;3.710;2023-01-19T13:21:25;5.18;;;2.10;;
61020;SDS011;66055;43.496;3.710;2023-01-19T13:26:24;5.45;;;2.17;;
61020;SDS011;66055;43.496;3.710;2023-01-19T13:29:02;5.90;;;2.13;;
61020;SDS011;66055;43.496;3.710;2023-01-19T13:31:38;4.95;;;2.30;;
61020;SDS011;66055;43.496;3.710;2023-01-19T13:34:24;6.07;;;2.90;;
61020;SDS011;66055;43.496;3.710;2023-01-19T13:36:52;4.57;;;2.20;;
61020;SDS011;66055;43.496;3.710;2023-01-19T13:39:31;7.10;;;3.08;;
61020;SDS011;66055;43.496;3.710;2023-01-19T13:42:04;4.78;;;1.85;;
61020;SDS011;66055;43.496;3.710;2023-01-19T13:44:46;5.47;;;1.90;;
61020;SDS011;66055;43.496;3.710;2023-01-19T13:47:49;3.40;;;2.13;;
61020;SDS011;66055;43.496;3.710;2023-01-19T13:50:20;2.60;;;1.50;;
61020;SDS011;66055;43.496;3.710;2023-01-19T13:52:54;2.92;;;1.70;;
61020;SDS011;66055;43.496;3.710;2023-01-19T13:55:23;4.75;;;1.95;;
61020;SDS011;66055;43.496;3.710;2023-01-19T13:57:52;5.78;;;2.50;;
61020;SDS011;66055;43.496;3.710;2023-01-19T14:00:20;5.18;;;2.70;;
61020;SDS011;66055;43.496;3.710;2023-01-19T14:03:07;4.43;;;1.80;;
61020;SDS011;66055;43.496;3.710;2023-01-19T14:05:38;3.75;;;1.63;;
61020;SDS011;66055;43.496;3.710;2023-01-19T14:10:36;3.35;;;1.70;;
61020;SDS011;66055;43.496;3.710;2023-01-19T14:15:47;4.35;;;1.70;;
61020;SDS011;66055;43.496;3.710;2023-01-19T14:29:06;9.60;;;4.35;;
61020;SDS011;66055;43.496;3.710;2023-01-19T14:40:03;6.68;;;2.50;;
61020;SDS011;66055;43.496;3.710;2023-01-19T14:42:59;4.47;;;2.00;;
61020;SDS011;66055;43.496;3.710;2023-01-19T14:45:31;5.47;;;2.22;;
61020;SDS011;66055;43.496;3.710;2023-01-19T14:48:18;4.18;;;2.05;;
61020;SDS011;66055;43.496;3.710;2023-01-19T14:50:46;6.22;;;2.20;;
61020;SDS011;66055;43.496;3.710;2023-01-19T14:53:21;7.63;;;2.72;;
61020;SDS011;66055;43.496;3.710;2023-01-19T14:55:51;6.25;;;2.30;;
61020;SDS011;66055;43.496;3.710;2023-01-19T14:58:18;7.50;;;2.05;;
61020;SDS011;66055;43.496;3.710;2023-01-19T15:00:46;7.20;;;2.75;;
61020;SDS011;66055;43.496;3.710;2023-01-19T15:03:12;7.32;;;3.65;;
61020;SDS011;66055;43.496;3.710;2023-01-19T15:05:39;6.88;;;2.75;;
61020;SDS011;66055;43.496;3.710;2023-01-19T15:08:19;9.70;;;2.75;;
61020;SDS011;66055;43.496;3.710;2023-01-19T15:10:57;9.65;;;3.75;;
61020;SDS011;66055;43.496;3.710;2023-01-19T15:13:30;8.15;;;3.10;;
61020;SDS011;66055;43.496;3.710;2023-01-19T15:15:56;9.63;;;3.00;;
61020;SDS011;66055;43.496;3.710;2023-01-19T15:23:16;12.32;;;4.72;;
61020;SDS011;66055;43.496;3.710;2023-01-19T15:25:41;15.98;;;6.35;;
61020;SDS011;66055;43.496;3.710;2023-01-19T15:28:11;9.38;;;4.22;;
61020;SDS011;66055;43.496;3.710;2023-01-19T15:30:38;8.68;;;3.42;;
61020;SDS011;66055;43.496;3.710;2023-01-19T15:33:04;8.85;;;2.88;;
61020;SDS011;66055;43.496;3.710;2023-01-19T15:35:30;8.05;;;3.15;;
61020;SDS011;66055;43.496;3.710;2023-01-19T15:37:56;8.43;;;3.08;;
61020;SDS011;66055;43.496;3.710;2023-01-19T15:40:22;6.43;;;2.40;;
61020;SDS011;66055;43.496;3.710;2023-01-19T15:42:48;7.72;;;2.80;;
61020;SDS011;66055;43.496;3.710;2023-01-19T15:47:58;8.02;;;2.53;;
61020;SDS011;66055;43.496;3.710;2023-01-19T15:50:32;8.18;;;3.13;;
61020;SDS011;66055;43.496;3.710;2023-01-19T15:53:00;9.82;;;3.70;;
61020;SDS011;66055;43.496;3.710;2023-01-19T15:55:26;7.43;;;3.53;;
61020;SDS011;66055;43.496;3.710;2023-01-19T15:57:51;12.55;;;3.17;;
61020;SDS011;66055;43.496;3.710;2023-01-19T16:00:17;9.57;;;3.22;;
61020;SDS011;66055;43.496;3.710;2023-01-19T16:02:43;7.82;;;2.40;;
61020;SDS011;66055;43.496;3.710;2023-01-19T16:05:09;8.63;;;3.00;;
61020;SDS011;66055;43.496;3.710;2023-01-19T16:07:35;10.60;;;3.20;;
61020;SDS011;66055;43.496;3.710;2023-01-19T16:10:01;10.90;;;3.85;;
61020;SDS011;66055;43.496;3.710;2023-01-19T16:12:27;10.90;;;4.20;;
61020;SDS011;66055;43.496;3.710;2023-01-19T16:14:53;9.95;;;4.82;;
61020;SDS011;66055;43.496;3.710;2023-01-19T16:17:19;11.05;;;4.90;;
61020;SDS011;66055;43.496;3.710;2023-01-19T16:19:45;7.35;;;3.10;;
61020;SDS011;66055;43.496;3.710;2023-01-19T16:22:12;11.70;;;4.28;;
61020;SDS011;66055;43.496;3.710;2023-01-19T16:24:37;10.60;;;2.67;;
61020;SDS011;66055;43.496;3.710;2023-01-19T16:27:03;8.35;;;2.63;;
61020;SDS011;66055;43.496;3.710;2023-01-19T16:29:29;6.22;;;3.10;;
61020;SDS011;66055;43.496;3.710;2023-01-19T16:31:55;7.78;;;3.00;;
61020;SDS011;66055;43.496;3.710;2023-01-19T16:34:21;10.57;;;3.00;;
61020;SDS011;66055;43.496;3.710;2023-01-19T16:36:49;6.88;;;2.63;;
61020;SDS011;66055;43.496;3.710;2023-01-19T16:39:15;6.28;;;2.35;;
61020;SDS011;66055;43.496;3.710;2023-01-19T16:41:41;8.70;;;2.60;;
61020;SDS011;66055;43.496;3.710;2023-01-19T16:44:09;7.28;;;2.72;;
61020;SDS011;66055;43.496;3.710;2023-01-19T16:46:37;7.40;;;2.85;;
61020;SDS011;66055;43.496;3.710;2023-01-19T16:51:37;7.05;;;2.53;;
61020;SDS011;66055;43.496;3.710;2023-01-19T16:54:03;10.38;;;4.05;;
61020;SDS011;66055;43.496;3.710;2023-01-19T16:56:30;9.90;;;4.00;;
61020;SDS011;66055;43.496;3.710;2023-01-19T16:58:56;13.63;;;4.25;;
61020;SDS011;66055;43.496;3.710;2023-01-19T17:01:23;8.38;;;2.95;;
61020;SDS011;66055;43.496;3.710;2023-01-19T17:03:50;9.52;;;2.83;;
61020;SDS011;66055;43.496;3.710;2023-01-19T17:06:17;11.65;;;3.28;;
61020;SDS011;66055;43.496;3.710;2023-01-19T17:08:44;7.18;;;3.00;;
61020;SDS011;66055;43.496;3.710;2023-01-19T17:13:37;10.02;;;3.15;;
61020;SDS011;66055;43.496;3.710;2023-01-19T17:16:04;8.10;;;3.25;;
61020;SDS011;66055;43.496;3.710;2023-01-19T17:18:31;7.80;;;3.28;;